createdAt,value
2022-10-01T00:01:52.447Z,10.01
2022-10-01T00:04:20.529Z,9.97
2022-10-01T00:06:50.050Z,9.93
2022-10-01T00:09:17.990Z,9.67
2022-10-01T00:11:46.025Z,9.67
2022-10-01T00:14:13.941Z,9.91
2022-10-01T00:16:41.815Z,9.89
2022-10-01T00:19:15.015Z,9.83
2022-10-01T00:21:42.998Z,9.62
2022-10-01T00:24:14.221Z,9.84
2022-10-01T00:26:45.646Z,9.82
2022-10-01T00:29:15.987Z,9.49
2022-10-01T00:31:44.267Z,9.85
2022-10-01T00:34:15.329Z,9.88
2022-10-01T00:36:43.422Z,9.89
2022-10-01T00:39:13.420Z,9.91
2022-10-01T00:41:41.876Z,9.93
2022-10-01T00:44:32.224Z,9.85
2022-10-01T00:47:04.672Z,9.95
2022-10-01T00:49:36.761Z,9.91
2022-10-01T00:52:09.515Z,9.90
2022-10-01T00:54:46.017Z,9.93
2022-10-01T00:57:17.346Z,9.95
2022-10-01T00:59:47.005Z,9.95
2022-10-01T01:02:14.988Z,9.96
2022-10-01T01:04:44.917Z,8.97
2022-10-01T01:07:13.895Z,9.97
2022-10-01T01:09:47.607Z,9.97
2022-10-01T01:12:27.555Z,9.97
2022-10-01T01:15:07.726Z,9.94
2022-10-01T01:17:43.382Z,9.93
2022-10-01T01:20:44.209Z,9.91
2022-10-01T01:23:27.253Z,9.68
2022-10-01T01:26:03.594Z,9.81
2022-10-01T01:28:38.169Z,9.74
2022-10-01T01:31:10.181Z,9.82
2022-10-01T01:33:40.799Z,9.82
2022-10-01T01:36:16.472Z,9.75
2022-10-01T01:38:49.178Z,9.86
2022-10-01T01:41:20.372Z,9.72
2022-10-01T01:43:53.040Z,8.18
2022-10-01T01:46:22.178Z,9.86
2022-10-01T01:48:53.420Z,9.72
2022-10-01T01:51:26.457Z,9.81
2022-10-01T01:53:55.681Z,9.77
2022-10-01T01:56:23.986Z,9.73
2022-10-01T01:58:54.881Z,9.67
2022-10-01T02:01:34.457Z,9.65
2022-10-01T02:04:05.821Z,9.23
2022-10-01T02:06:47.502Z,9.50
2022-10-01T02:09:26.840Z,9.63
2022-10-01T02:12:04.460Z,9.02
2022-10-01T02:14:40.779Z,9.50
2022-10-01T02:17:16.786Z,9.57
2022-10-01T02:19:53.457Z,8.72
2022-10-01T02:22:24.749Z,9.08
2022-10-01T02:24:57.257Z,9.55
2022-10-01T02:27:30.440Z,9.56
2022-10-01T02:30:07.503Z,9.57
2022-10-01T02:32:39.956Z,9.56
2022-10-01T02:35:10.003Z,9.55
2022-10-01T02:37:40.242Z,9.37
2022-10-01T02:40:11.862Z,9.57
2022-10-01T02:42:43.300Z,8.91
2022-10-01T02:45:14.438Z,9.20
2022-10-01T02:47:48.236Z,9.59
2022-10-01T02:50:16.713Z,9.52
2022-10-01T02:52:51.088Z,9.60
2022-10-01T02:55:22.437Z,9.52
2022-10-01T02:57:51.082Z,9.63
2022-10-01T03:00:21.725Z,9.68
2022-10-01T03:02:50.793Z,9.56
2022-10-01T03:05:18.984Z,9.73
2022-10-01T03:07:47.254Z,9.72
2022-10-01T03:10:16.248Z,9.72
2022-10-01T03:12:46.585Z,9.50
2022-10-01T03:15:16.591Z,9.68
2022-10-01T03:17:45.990Z,9.68
2022-10-01T03:20:14.096Z,9.66
2022-10-01T03:22:42.004Z,9.64
2022-10-01T03:25:10.635Z,9.53
2022-10-01T03:27:38.553Z,9.62
2022-10-01T03:30:07.676Z,9.62
2022-10-01T03:32:35.892Z,9.46
2022-10-01T03:35:05.784Z,9.39
2022-10-01T03:37:33.793Z,9.55
2022-10-01T03:40:02.224Z,9.58
2022-10-01T03:42:30.076Z,9.61
2022-10-01T03:44:57.948Z,9.67
2022-10-01T03:47:26.434Z,9.71
2022-10-01T03:49:54.277Z,9.23
2022-10-01T03:52:23.628Z,9.71
2022-10-01T03:54:51.689Z,9.01
2022-10-01T03:57:19.532Z,9.52
2022-10-01T03:59:47.553Z,9.60
2022-10-01T04:02:15.627Z,9.48
2022-10-01T04:04:43.593Z,9.33
2022-10-01T04:07:11.551Z,9.47
2022-10-01T04:09:41.686Z,9.44
2022-10-01T04:12:09.609Z,9.41
2022-10-01T04:14:37.527Z,9.38
2022-10-01T04:17:05.583Z,9.10
2022-10-01T04:19:33.665Z,8.59
2022-10-01T04:22:01.592Z,9.37
2022-10-01T04:24:29.762Z,9.38
2022-10-01T04:26:59.010Z,9.40
2022-10-01T04:29:26.907Z,9.33
2022-10-01T04:31:55.079Z,9.50
2022-10-01T04:34:43.505Z,9.08
2022-10-01T04:37:11.662Z,9.50
2022-10-01T04:39:39.473Z,9.48
2022-10-01T04:42:08.859Z,9.20
2022-10-01T04:44:37.005Z,9.08
2022-10-01T04:47:04.938Z,9.28
2022-10-01T04:49:33.600Z,9.37
2022-10-01T04:52:01.846Z,9.36
2022-10-01T04:54:29.676Z,9.34
2022-10-01T04:56:58.347Z,8.89
2022-10-01T04:59:28.003Z,9.29
2022-10-01T05:01:55.919Z,9.26
2022-10-01T05:04:24.010Z,9.25
2022-10-01T05:06:52.278Z,8.86
2022-10-01T05:09:20.203Z,9.10
2022-10-01T05:11:52.150Z,9.15
2022-10-01T05:14:21.364Z,9.15
2022-10-01T05:16:50.607Z,9.07
2022-10-01T05:19:18.484Z,9.08
2022-10-01T05:21:46.610Z,9.21
2022-10-01T05:24:18.669Z,9.22
2022-10-01T05:26:46.676Z,9.24
2022-10-01T05:29:15.306Z,9.28
2022-10-01T05:31:44.430Z,9.33
2022-10-01T05:34:14.244Z,9.38
2022-10-01T05:36:42.402Z,8.60
2022-10-01T05:39:10.418Z,9.49
2022-10-01T05:41:38.262Z,9.41
2022-10-01T05:44:06.997Z,9.56
2022-10-01T05:46:34.909Z,9.56
2022-10-01T05:49:02.981Z,9.50
2022-10-01T05:51:32.627Z,9.68
2022-10-01T05:54:02.601Z,9.74
2022-10-01T05:56:30.581Z,8.92
2022-10-01T05:58:59.646Z,9.85
2022-10-01T06:01:28.146Z,9.88
2022-10-01T06:03:56.005Z,9.95
2022-10-01T06:06:24.340Z,9.99
2022-10-01T06:08:54.106Z,9.87
2022-10-01T06:11:24.320Z,9.99
2022-10-01T06:13:53.005Z,10.05
2022-10-01T06:16:21.428Z,10.14
2022-10-01T06:18:50.105Z,10.28
2022-10-01T06:21:18.196Z,10.35
2022-10-01T06:23:46.038Z,10.39
2022-10-01T06:26:15.233Z,10.44
2022-10-01T06:28:43.253Z,10.48
2022-10-01T06:31:11.721Z,10.36
2022-10-01T06:33:39.554Z,10.49
2022-10-01T06:36:07.940Z,10.52
2022-10-01T06:38:35.794Z,10.60
2022-10-01T06:41:05.146Z,10.78
2022-10-01T06:43:35.178Z,10.93
2022-10-01T06:46:04.491Z,11.06
2022-10-01T06:48:32.933Z,11.25
2022-10-01T06:51:01.036Z,11.51
2022-10-01T06:53:29.622Z,11.61
2022-10-01T06:55:57.601Z,11.75
2022-10-01T06:58:27.436Z,12.09
2022-10-01T07:01:01.625Z,12.52
2022-10-01T07:03:30.032Z,12.93
2022-10-01T07:06:03.400Z,13.22
2022-10-01T07:08:31.618Z,13.47
2022-10-01T07:11:03.743Z,13.79
2022-10-01T07:13:32.131Z,14.16
2022-10-01T07:16:04.022Z,14.26
2022-10-01T07:18:32.194Z,14.41
2022-10-01T07:21:00.456Z,14.01
2022-10-01T07:23:28.445Z,14.63
2022-10-01T07:25:56.366Z,14.52
2022-10-01T07:28:26.072Z,14.20
2022-10-01T07:31:00.097Z,13.73
2022-10-01T07:33:29.865Z,13.87
2022-10-01T07:36:01.610Z,13.74
2022-10-01T07:38:29.642Z,13.49
2022-10-01T07:40:59.061Z,13.22
2022-10-01T07:43:27.064Z,13.00
2022-10-01T07:45:58.121Z,12.79
2022-10-01T07:48:26.209Z,12.60
2022-10-01T07:50:55.547Z,12.47
2022-10-01T07:53:25.222Z,12.44
2022-10-01T07:55:53.143Z,12.67
2022-10-01T07:58:24.199Z,13.04
2022-10-01T08:00:58.587Z,13.45
2022-10-01T08:03:26.854Z,13.93
2022-10-01T08:05:56.809Z,14.42
2022-10-01T08:08:24.677Z,14.69
2022-10-01T08:10:52.589Z,14.63
2022-10-01T08:13:24.795Z,14.44
2022-10-01T08:15:54.969Z,14.27
2022-10-01T08:18:23.389Z,13.33
2022-10-01T08:20:52.584Z,13.53
2022-10-01T08:23:22.933Z,13.89
2022-10-01T08:25:50.935Z,13.76
2022-10-01T08:28:19.561Z,13.12
2022-10-01T08:30:47.513Z,13.53
2022-10-01T08:33:15.810Z,13.83
2022-10-01T08:35:44.575Z,14.28
2022-10-01T08:38:13.672Z,14.90
2022-10-01T08:40:47.372Z,15.34
2022-10-01T08:43:30.054Z,15.61
2022-10-01T08:46:00.977Z,15.81
2022-10-01T08:48:39.872Z,15.60
2022-10-01T08:51:12.362Z,16.09
2022-10-01T08:53:45.294Z,15.78
2022-10-01T08:56:21.561Z,15.30
2022-10-01T08:58:55.063Z,15.20
2022-10-01T09:01:22.940Z,14.87
2022-10-01T09:03:51.684Z,14.67
2022-10-01T09:06:23.685Z,14.52
2022-10-01T09:09:10.634Z,14.69
2022-10-01T09:12:05.840Z,15.39
2022-10-01T09:14:45.747Z,16.07
2022-10-01T09:17:23.245Z,16.41
2022-10-01T09:20:04.514Z,16.86
2022-10-01T09:22:40.706Z,17.45
2022-10-01T09:25:14.766Z,17.89
2022-10-01T09:27:45.608Z,17.93
2022-10-01T09:30:17.977Z,18.30
2022-10-01T09:32:50.510Z,18.05
2022-10-01T09:35:31.161Z,18.52
2022-10-01T09:38:03.553Z,18.66
2022-10-01T09:40:36.489Z,18.70
2022-10-01T09:43:08.327Z,18.66
2022-10-01T09:45:36.552Z,18.62
2022-10-01T09:48:15.263Z,18.30
2022-10-01T09:50:50.451Z,17.61
2022-10-01T09:53:24.064Z,16.93
2022-10-01T09:55:55.869Z,16.42
2022-10-01T09:58:27.927Z,16.01
2022-10-01T10:00:56.627Z,15.26
2022-10-01T10:03:28.886Z,15.35
2022-10-01T10:05:58.335Z,15.00
2022-10-01T10:08:29.977Z,14.75
2022-10-01T10:11:01.619Z,14.71
2022-10-01T10:13:34.967Z,14.10
2022-10-01T10:16:11.020Z,14.20
2022-10-01T10:18:40.998Z,13.71
2022-10-01T10:21:16.505Z,13.25
2022-10-01T10:23:50.525Z,12.92
2022-10-01T10:26:28.528Z,12.64
2022-10-01T10:28:58.038Z,12.62
2022-10-01T10:31:28.744Z,13.01
2022-10-01T10:34:04.310Z,13.47
2022-10-01T10:36:35.570Z,13.79
2022-10-01T10:39:06.443Z,13.69
2022-10-01T10:41:36.340Z,13.53
2022-10-01T10:44:09.104Z,13.48
2022-10-01T10:46:42.902Z,13.79
2022-10-01T10:49:22.176Z,14.37
2022-10-01T10:51:54.077Z,14.80
2022-10-01T10:54:29.409Z,15.41
2022-10-01T10:57:03.268Z,15.88
2022-10-01T10:59:34.922Z,16.22
2022-10-01T11:02:05.466Z,16.60
2022-10-01T11:04:42.821Z,17.15
2022-10-01T11:07:13.447Z,17.25
2022-10-01T11:10:00.858Z,17.17
2022-10-01T11:12:44.000Z,17.40
2022-10-01T11:15:32.988Z,17.59
2022-10-01T11:18:17.429Z,17.95
2022-10-01T11:20:56.850Z,17.64
2022-10-01T11:23:46.668Z,17.15
2022-10-01T11:26:25.300Z,16.75
2022-10-01T11:29:07.945Z,16.44
2022-10-01T11:31:49.891Z,16.09
2022-10-01T11:34:37.895Z,15.89
2022-10-01T11:37:17.949Z,16.21
2022-10-01T11:39:48.788Z,16.50
2022-10-01T11:42:22.353Z,16.45
2022-10-01T11:45:00.557Z,16.55
2022-10-01T11:47:34.439Z,16.23
2022-10-01T11:50:06.717Z,16.33
2022-10-01T11:52:40.274Z,16.25
2022-10-01T11:55:34.769Z,16.04
2022-10-01T11:58:30.919Z,15.99
2022-10-01T12:01:09.010Z,16.00
2022-10-01T12:03:51.222Z,16.00
2022-10-01T12:06:25.545Z,15.69
2022-10-01T12:09:01.199Z,15.53
2022-10-01T12:11:37.032Z,15.61
2022-10-01T12:14:11.680Z,15.37
2022-10-01T12:16:45.788Z,15.90
2022-10-01T12:19:21.698Z,16.49
2022-10-01T12:21:54.432Z,17.00
2022-10-01T12:24:27.601Z,17.29
2022-10-01T12:27:05.390Z,17.50
2022-10-01T12:29:44.796Z,17.78
2022-10-01T12:32:23.864Z,18.01
2022-10-01T12:35:05.159Z,18.22
2022-10-01T12:37:46.030Z,17.77
2022-10-01T12:40:26.720Z,17.70
2022-10-01T12:43:09.390Z,17.28
2022-10-01T12:45:47.485Z,17.49
2022-10-01T12:48:22.868Z,17.60
2022-10-01T12:50:58.672Z,17.60
2022-10-01T12:53:36.678Z,18.08
2022-10-01T12:56:18.174Z,18.15
2022-10-01T12:59:06.500Z,18.32
2022-10-01T13:01:47.019Z,18.65
2022-10-01T13:04:31.151Z,18.58
2022-10-01T13:07:31.904Z,18.63
2022-10-01T13:10:12.196Z,18.89
2022-10-01T13:12:57.756Z,19.13
2022-10-01T13:15:29.547Z,19.48
2022-10-01T13:18:06.753Z,19.93
2022-10-01T13:20:41.773Z,20.21
2022-10-01T13:23:16.454Z,20.59
2022-10-01T13:25:53.066Z,20.58
2022-10-01T13:28:27.571Z,20.06
2022-10-01T13:31:03.012Z,20.36
2022-10-01T13:33:33.318Z,20.51
2022-10-01T13:36:03.206Z,20.77
2022-10-01T13:38:42.920Z,21.05
2022-10-01T13:41:22.058Z,21.42
2022-10-01T13:43:57.165Z,21.46
2022-10-01T13:46:28.488Z,21.46
2022-10-01T13:48:57.373Z,21.43
2022-10-01T13:51:36.000Z,21.15
2022-10-01T13:54:09.613Z,20.57
2022-10-01T13:56:39.181Z,19.77
2022-10-01T13:59:34.164Z,19.29
2022-10-01T14:02:03.101Z,19.05
2022-10-01T14:04:38.926Z,19.17
2022-10-01T14:07:15.924Z,19.46
2022-10-01T14:09:47.108Z,19.31
2022-10-01T14:12:38.570Z,19.70
2022-10-01T14:15:34.616Z,19.49
2022-10-01T14:18:05.642Z,19.16
2022-10-01T14:20:37.518Z,19.19
2022-10-01T14:23:12.087Z,19.09
2022-10-01T14:25:51.508Z,18.89
2022-10-01T14:28:36.521Z,18.87
2022-10-01T14:31:10.380Z,18.54
2022-10-01T14:34:01.409Z,18.09
2022-10-01T14:36:35.263Z,17.77
2022-10-01T14:39:15.178Z,17.69
2022-10-01T14:41:44.510Z,17.75
2022-10-01T14:44:23.405Z,17.62
2022-10-01T14:46:52.336Z,17.34
2022-10-01T14:49:22.941Z,16.67
2022-10-01T14:51:52.965Z,16.87
2022-10-01T14:54:21.868Z,16.83
2022-10-01T14:56:50.819Z,16.61
2022-10-01T14:59:27.075Z,16.40
2022-10-01T15:01:56.585Z,16.55
2022-10-01T15:04:24.672Z,16.40
2022-10-01T15:06:53.410Z,16.38
2022-10-01T15:09:21.568Z,16.26
2022-10-01T15:11:52.338Z,15.91
2022-10-01T15:14:26.232Z,15.85
2022-10-01T15:16:54.731Z,15.27
2022-10-01T15:19:24.451Z,15.41
2022-10-01T15:21:55.371Z,15.30
2022-10-01T15:24:33.740Z,15.18
2022-10-01T15:27:02.668Z,15.10
2022-10-01T15:29:32.027Z,14.83
2022-10-01T15:32:00.598Z,14.88
2022-10-01T15:34:29.037Z,14.64
2022-10-01T15:36:59.926Z,14.70
2022-10-01T15:39:33.073Z,14.32
2022-10-01T15:42:25.755Z,14.47
2022-10-01T15:45:26.578Z,14.33
2022-10-01T15:47:57.161Z,14.29
2022-10-01T15:50:27.755Z,14.10
2022-10-01T15:53:06.397Z,14.00
2022-10-01T15:55:42.592Z,14.05
2022-10-01T15:58:16.813Z,13.96
2022-10-01T16:00:59.118Z,13.87
2022-10-01T16:03:33.445Z,13.78
2022-10-01T16:06:03.529Z,13.69
2022-10-01T16:08:36.451Z,13.61
2022-10-01T16:11:20.447Z,13.09
2022-10-01T16:13:50.417Z,13.48
2022-10-01T16:16:30.337Z,13.42
2022-10-01T16:19:00.818Z,13.25
2022-10-01T16:21:29.377Z,13.29
2022-10-01T16:23:57.840Z,12.90
2022-10-01T16:26:36.518Z,13.16
2022-10-01T16:29:08.452Z,12.88
2022-10-01T16:31:45.964Z,13.04
2022-10-01T16:34:15.632Z,12.96
2022-10-01T16:36:44.596Z,12.90
2022-10-01T16:39:13.863Z,12.84
2022-10-01T16:41:43.715Z,12.77
2022-10-01T16:44:14.454Z,12.73
2022-10-01T16:46:43.762Z,12.58
2022-10-01T16:49:15.300Z,12.55
2022-10-01T16:51:43.799Z,12.57
2022-10-01T16:54:20.555Z,12.52
2022-10-01T16:56:48.790Z,12.49
2022-10-01T16:59:16.711Z,12.36
2022-10-01T17:01:46.575Z,12.40
2022-10-01T17:04:14.938Z,12.38
2022-10-01T17:06:42.797Z,12.26
2022-10-01T17:09:10.913Z,12.30
2022-10-01T17:11:39.624Z,12.27
2022-10-01T17:14:08.305Z,12.25
2022-10-01T17:16:36.877Z,12.22
2022-10-01T17:19:06.924Z,12.17
2022-10-01T17:21:34.934Z,12.15
2022-10-01T17:24:03.158Z,12.13
2022-10-01T17:26:31.050Z,12.13
2022-10-01T17:28:59.015Z,12.04
2022-10-01T17:31:27.631Z,12.08
2022-10-01T17:33:55.508Z,12.07
2022-10-01T17:36:24.897Z,12.04
2022-10-01T17:38:53.063Z,12.02
2022-10-01T17:41:20.934Z,12.02
2022-10-01T17:43:48.845Z,11.99
2022-10-01T17:46:17.098Z,11.97
2022-10-01T17:48:45.116Z,11.97
2022-10-01T17:51:15.732Z,11.99
2022-10-01T17:53:45.191Z,12.03
2022-10-01T17:56:15.671Z,12.08
2022-10-01T17:58:45.579Z,12.12
2022-10-01T18:01:16.376Z,12.17
2022-10-01T18:03:44.303Z,12.23
2022-10-01T18:06:15.406Z,11.95
2022-10-01T18:08:55.183Z,12.29
2022-10-01T18:11:24.421Z,12.17
2022-10-01T18:13:52.775Z,12.28
2022-10-01T18:16:20.999Z,12.28
2022-10-01T18:21:38.070Z,12.33
2022-10-01T18:24:07.815Z,12.34
2022-10-01T18:26:36.281Z,12.35
2022-10-01T18:29:05.536Z,12.32
2022-10-01T18:31:36.623Z,12.40
2022-10-01T18:34:12.530Z,12.44
2022-10-01T18:36:48.291Z,12.48
2022-10-01T18:39:22.417Z,12.51
2022-10-01T18:41:50.701Z,12.55
2022-10-01T18:44:21.063Z,12.54
2022-10-01T18:47:00.846Z,12.40
2022-10-01T18:49:51.936Z,12.61
2022-10-01T18:52:30.598Z,12.64
2022-10-01T18:55:21.508Z,12.64
2022-10-01T18:58:04.747Z,12.65
2022-10-01T19:00:45.875Z,12.66
2022-10-01T19:03:40.825Z,12.67
2022-10-01T19:06:21.226Z,12.52
2022-10-01T19:09:09.422Z,12.68
2022-10-01T19:11:49.066Z,12.16
2022-10-01T19:14:39.673Z,12.60
2022-10-01T19:17:18.452Z,12.47
2022-10-01T19:19:59.890Z,12.37
2022-10-01T19:22:36.216Z,12.43
2022-10-01T19:25:14.528Z,12.37
2022-10-01T19:28:00.355Z,12.33
2022-10-01T19:30:35.014Z,12.26
2022-10-01T19:33:06.395Z,12.22
2022-10-01T19:35:39.233Z,12.16
2022-10-01T19:38:15.805Z,12.07
2022-10-01T19:40:49.689Z,11.98
2022-10-01T19:43:27.504Z,11.98
2022-10-01T19:46:01.397Z,11.71
2022-10-01T19:48:39.773Z,11.82
2022-10-01T19:51:10.311Z,11.81
2022-10-01T19:53:39.969Z,11.42
2022-10-01T19:56:12.272Z,11.75
2022-10-01T19:58:41.579Z,11.72
2022-10-01T20:01:16.363Z,11.69
2022-10-01T20:03:52.190Z,11.67
2022-10-01T20:06:26.788Z,11.64
2022-10-01T20:08:59.383Z,11.62
2022-10-01T20:11:31.871Z,11.61
2022-10-01T20:14:33.522Z,11.59
2022-10-01T20:17:05.560Z,11.51
2022-10-01T20:19:40.334Z,11.58
2022-10-01T20:22:22.788Z,11.55
2022-10-01T20:24:59.489Z,11.54
2022-10-01T20:27:40.225Z,11.53
2022-10-01T20:30:13.009Z,11.46
2022-10-01T20:32:49.944Z,11.53
2022-10-01T20:35:27.049Z,11.46
2022-10-01T20:38:02.809Z,11.51
2022-10-01T20:40:36.264Z,11.52
2022-10-01T20:43:07.462Z,11.53
2022-10-01T20:45:36.823Z,11.54
2022-10-01T20:48:11.577Z,11.53
2022-10-01T20:50:43.819Z,11.52
2022-10-01T20:53:21.493Z,11.50
2022-10-01T20:55:53.782Z,11.46
2022-10-01T20:58:25.498Z,11.49
2022-10-01T21:01:00.912Z,11.50
2022-10-01T21:03:33.586Z,11.49
2022-10-01T21:06:08.205Z,11.51
2022-10-01T21:08:46.446Z,11.50
2022-10-01T21:11:20.859Z,11.51
2022-10-01T21:13:55.187Z,11.51
2022-10-01T21:16:44.599Z,11.52
2022-10-01T21:19:31.981Z,11.51
2022-10-01T21:22:11.823Z,11.23
2022-10-01T21:24:51.631Z,11.44
2022-10-01T21:27:42.932Z,11.47
2022-10-01T21:30:15.723Z,11.19
2022-10-01T21:33:02.722Z,11.50
2022-10-01T21:35:40.707Z,11.48
2022-10-01T21:38:17.048Z,11.43
2022-10-01T21:41:02.129Z,11.52
2022-10-01T21:43:44.802Z,11.51
2022-10-01T21:46:23.709Z,11.42
2022-10-01T21:48:59.696Z,11.54
2022-10-01T21:51:40.569Z,11.25
2022-10-01T21:54:24.332Z,11.49
2022-10-01T21:57:11.568Z,11.55
2022-10-01T22:00:05.971Z,11.51
2022-10-01T22:02:44.537Z,11.46
2022-10-01T22:05:24.701Z,11.44
2022-10-01T22:08:01.638Z,11.51
2022-10-01T22:10:35.281Z,11.62
2022-10-01T22:13:05.584Z,11.61
2022-10-01T22:15:39.875Z,11.60
2022-10-01T22:18:13.368Z,11.62
2022-10-01T22:20:45.007Z,11.54
2022-10-01T22:23:18.293Z,11.66
2022-10-01T22:25:52.668Z,11.65
2022-10-01T22:28:25.135Z,11.62
2022-10-01T22:30:57.233Z,11.64
2022-10-01T22:33:33.276Z,11.63
2022-10-01T22:36:10.064Z,11.56
2022-10-01T22:38:43.508Z,11.50
2022-10-01T22:41:17.032Z,11.13
2022-10-01T22:43:45.933Z,11.53
2022-10-01T22:46:40.217Z,11.52
2022-10-01T22:49:24.866Z,11.51
2022-10-01T22:52:03.077Z,11.47
2022-10-01T22:54:40.053Z,11.46
2022-10-01T22:57:26.234Z,11.46
2022-10-01T23:00:03.368Z,11.44
2022-10-01T23:02:37.052Z,11.42
2022-10-01T23:05:18.036Z,11.39
2022-10-01T23:07:59.282Z,11.39
2022-10-01T23:10:35.634Z,11.38
2022-10-01T23:13:15.317Z,11.29
2022-10-01T23:15:50.766Z,11.39
2022-10-01T23:18:35.210Z,11.39
2022-10-01T23:21:16.491Z,11.41
2022-10-01T23:23:54.818Z,11.39
2022-10-01T23:26:37.519Z,11.38
2022-10-01T23:29:20.276Z,11.37
2022-10-01T23:31:59.335Z,11.37
2022-10-01T23:34:33.020Z,11.35
2022-10-01T23:37:16.361Z,11.35
2022-10-01T23:39:53.293Z,11.33
2022-10-01T23:42:32.581Z,11.22
2022-10-01T23:45:15.552Z,11.25
2022-10-01T23:47:51.504Z,11.22
2022-10-01T23:50:23.817Z,11.28
2022-10-01T23:53:04.846Z,11.23
2022-10-01T23:56:01.677Z,11.20
2022-10-01T23:58:36.463Z,11.00
